Time;durP1;ratioP1;P1;durP2;ratioP2;P2;SDS_P1;SDS_P2;PMS_P1;PMS_P2;Temp;Humidity;BMP_temperature;BMP_pressure;BME280_temperature;BME280_humidity;BME280_pressure;Samples;Min_cycle;Max_cycle;Signal;HPM_P1;HPM_P2
2022/08/07 00:01:12;;;;;;;2.65;1.75;;;19.90;31.40;;;;;;5035235;28;20269;-42
2022/08/07 00:03:38;;;;;;;2.60;1.50;;;19.80;31.40;;;;;;5035330;28;20266;-43
2022/08/07 00:06:04;;;;;;;2.67;1.37;;;19.80;31.20;;;;;;5034929;28;20407;-42
2022/08/07 00:08:30;;;;;;;3.22;1.65;;;19.70;31.20;;;;;;5035028;28;20650;-42
2022/08/07 00:10:56;;;;;;;3.17;1.47;;;19.70;31.20;;;;;;5034938;28;20292;-42
2022/08/07 00:13:21;;;;;;;2.80;1.67;;;19.70;31.40;;;;;;5034864;28;20415;-43
2022/08/07 00:15:49;;;;;;;3.33;1.23;;;19.70;31.40;;;;;;5034740;28;20174;-43
2022/08/07 00:18:16;;;;;;;2.60;1.35;;;19.70;31.60;;;;;;5035095;28;20452;-42
2022/08/07 00:20:42;;;;;;;3.25;1.60;;;19.60;31.60;;;;;;5034903;28;20596;-42
2022/08/07 00:23:08;;;;;;;2.83;1.23;;;19.50;31.80;;;;;;5034782;28;20689;-43
2022/08/07 00:25:35;;;;;;;2.00;1.10;;;19.50;31.70;;;;;;5034763;28;20412;-43
2022/08/07 00:28:01;;;;;;;2.38;1.42;;;19.50;31.60;;;;;;5016912;28;20412;-44
2022/08/07 00:30:28;;;;;;;3.90;1.63;;;19.50;31.60;;;;;;5034671;28;20185;-44
2022/08/07 00:32:58;;;;;;;3.63;1.55;;;19.50;31.80;;;;;;5034900;28;20186;-41
2022/08/07 00:35:26;;;;;;;3.25;1.35;;;19.40;31.70;;;;;;5034789;28;20237;-42
2022/08/07 00:37:51;;;;;;;2.95;1.55;;;19.40;31.80;;;;;;5034543;28;20197;-43
2022/08/07 00:40:18;;;;;;;4.10;2.07;;;19.30;31.70;;;;;;5034326;28;20189;-44
2022/08/07 00:42:44;;;;;;;3.40;2.00;;;19.30;31.80;;;;;;5034756;28;20170;-44
2022/08/07 00:45:10;;;;;;;3.07;1.70;;;19.20;32.00;;;;;;5034664;28;20542;-45
2022/08/07 00:47:36;;;;;;;2.65;1.48;;;19.20;32.00;;;;;;5034072;28;20836;-43
2022/08/07 00:50:03;;;;;;;2.90;1.77;;;19.20;31.90;;;;;;5034349;28;20199;-41
2022/08/07 00:52:29;;;;;;;6.72;1.63;;;19.20;31.90;;;;;;5034192;28;20692;-43
2022/08/07 00:54:55;;;;;;;3.03;1.47;;;19.10;31.80;;;;;;5034092;28;20192;-42
2022/08/07 00:57:23;;;;;;;3.40;2.07;;;19.20;32.10;;;;;;5034105;28;20209;-43
2022/08/07 00:59:48;;;;;;;2.42;1.55;;;19.10;32.00;;;;;;5034338;28;20169;-44
2022/08/07 01:02:14;;;;;;;2.20;1.13;;;19.10;32.50;;;;;;5033998;28;20553;-44
2022/08/07 01:04:40;;;;;;;2.57;1.57;;;19.00;32.40;;;;;;5033950;28;20170;-43
2022/08/07 01:07:06;;;;;;;4.75;1.55;;;18.90;32.60;;;;;;5033734;28;20711;-43
2022/08/07 01:09:33;;;;;;;6.37;1.67;;;18.90;32.50;;;;;;5032640;28;20182;-44
2022/08/07 01:11:59;;;;;;;3.03;1.77;;;18.90;32.60;;;;;;5033879;28;20194;-42
2022/08/07 01:14:26;;;;;;;2.85;1.85;;;18.80;32.70;;;;;;5034023;28;20174;-43
2022/08/07 01:16:53;;;;;;;3.10;2.10;;;18.80;32.60;;;;;;5033570;28;20657;-42
2022/08/07 01:19:21;;;;;;;4.60;2.25;;;18.70;32.90;;;;;;5033803;28;20188;-43
2022/08/07 01:21:49;;;;;;;2.40;1.40;;;18.70;32.80;;;;;;5033687;28;20186;-42
2022/08/07 01:24:17;;;;;;;2.92;1.60;;;18.70;32.90;;;;;;5033637;28;20257;-42
2022/08/07 01:26:43;;;;;;;2.60;1.80;;;18.60;32.80;;;;;;5033595;28;20219;-44
2022/08/07 01:29:10;;;;;;;2.22;1.30;;;18.60;32.60;;;;;;5033888;28;20545;-43
2022/08/07 01:31:37;;;;;;;2.15;1.23;;;18.60;32.60;;;;;;5033425;28;20241;-42
2022/08/07 01:34:04;;;;;;;2.30;1.20;;;18.60;32.60;;;;;;5033706;28;20678;-42
2022/08/07 01:36:30;;;;;;;2.53;1.60;;;18.60;32.60;;;;;;5033248;28;20178;-41
2022/08/07 01:38:57;;;;;;;2.67;1.25;;;18.50;32.60;;;;;;5033587;28;20205;-42
2022/08/07 01:41:24;;;;;;;2.97;1.77;;;18.50;32.70;;;;;;5015505;28;20217;-42
2022/08/07 01:43:50;;;;;;;2.70;1.60;;;18.50;32.60;;;;;;5033552;28;20178;-42
2022/08/07 01:46:18;;;;;;;3.55;2.13;;;18.50;32.90;;;;;;5033020;28;20174;-43
2022/08/07 01:48:45;;;;;;;2.25;1.30;;;18.50;32.70;;;;;;5033225;28;20205;-42
2022/08/07 01:51:22;;;;;;;2.65;1.65;;;18.40;32.70;;;;;;5033002;28;20209;-43
2022/08/07 01:53:57;;;;;;;4.82;1.48;;;18.40;32.80;;;;;;5033111;28;20170;-42
2022/08/07 01:56:30;;;;;;;3.75;1.80;;;18.40;33.50;;;;;;5033140;28;20168;-42
2022/08/07 01:59:17;;;;;;;2.67;1.45;;;18.30;32.90;;;;;;5032925;28;20213;-43
2022/08/07 02:01:51;;;;;;;2.22;1.27;;;18.30;33.00;;;;;;5032909;28;20197;-43
2022/08/07 02:04:27;;;;;;;3.90;1.55;;;18.20;33.00;;;;;;5032922;28;20177;-43
2022/08/07 02:06:56;;;;;;;2.72;1.90;;;18.10;33.10;;;;;;5032887;28;20177;-43
2022/08/07 02:09:23;;;;;;;2.45;1.55;;;18.10;33.10;;;;;;5033060;28;20174;-44
2022/08/07 02:11:52;;;;;;;2.60;1.77;;;18.10;33.60;;;;;;5032744;28;20205;-42
2022/08/07 02:14:19;;;;;;;2.75;1.50;;;18.10;33.10;;;;;;5032745;28;20174;-44
2022/08/07 02:16:48;;;;;;;1.92;1.15;;;18.10;33.10;;;;;;5032646;28;20209;-42
2022/08/07 02:19:16;;;;;;;2.20;1.48;;;18.00;33.00;;;;;;5032527;28;20213;-43
2022/08/07 02:21:43;;;;;;;3.25;1.60;;;18.10;32.90;;;;;;5032328;28;20247;-43
2022/08/07 02:24:11;;;;;;;3.40;1.45;;;18.00;32.80;;;;;;5032586;28;20642;-42
2022/08/07 02:26:38;;;;;;;2.30;1.10;;;18.00;32.90;;;;;;5032276;28;20177;-42
2022/08/07 02:29:07;;;;;;;1.90;1.00;;;18.00;33.10;;;;;;5032741;28;20178;-43
2022/08/07 02:31:34;;;;;;;2.30;1.48;;;17.90;33.50;;;;;;5032337;28;20227;-42
2022/08/07 02:34:02;;;;;;;2.20;1.40;;;17.80;33.80;;;;;;5032532;28;20228;-43
2022/08/07 02:36:29;;;;;;;4.10;1.70;;;17.80;33.80;;;;;;5014507;28;20174;-43
2022/08/07 02:39:00;;;;;;;3.08;1.23;;;17.80;33.70;;;;;;5032335;28;20210;-42
2022/08/07 02:41:28;;;;;;;2.75;1.40;;;17.80;33.90;;;;;;5032527;28;20194;-42
2022/08/07 02:43:54;;;;;;;1.83;0.95;;;17.70;33.70;;;;;;5032555;28;20182;-42
2022/08/07 02:46:23;;;;;;;5.10;1.55;;;17.70;33.60;;;;;;5032045;28;20198;-43
2022/08/07 02:48:49;;;;;;;2.80;1.50;;;17.70;33.60;;;;;;5032262;28;20174;-43
2022/08/07 02:51:19;;;;;;;2.20;1.50;;;17.80;33.60;;;;;;5032152;28;20194;-42
2022/08/07 02:53:52;;;;;;;3.75;1.60;;;17.80;33.70;;;;;;5032175;28;20161;-43
2022/08/07 02:56:21;;;;;;;3.17;1.10;;;17.70;33.80;;;;;;5032239;28;20200;-42
2022/08/07 02:58:50;;;;;;;1.88;1.17;;;17.70;33.70;;;;;;5032312;28;20202;-44
2022/08/07 03:01:18;;;;;;;2.95;1.75;;;17.70;33.60;;;;;;5031918;28;20194;-43
2022/08/07 03:03:46;;;;;;;2.47;1.30;;;17.70;33.80;;;;;;5032008;28;20193;-43
2022/08/07 03:06:14;;;;;;;1.80;1.05;;;17.60;33.90;;;;;;5032005;28;20216;-42
2022/08/07 03:08:41;;;;;;;2.30;1.27;;;17.60;33.80;;;;;;5032227;28;20189;-42
2022/08/07 03:11:07;;;;;;;2.15;1.30;;;17.60;34.30;;;;;;5032037;28;20208;-42
2022/08/07 03:13:33;;;;;;;2.08;1.02;;;17.60;34.00;;;;;;5032055;28;20208;-43
2022/08/07 03:15:59;;;;;;;2.00;1.20;;;17.60;34.00;;;;;;5031735;28;20201;-44
2022/08/07 03:18:26;;;;;;;2.33;1.30;;;17.60;33.90;;;;;;5031817;28;20271;-44
2022/08/07 03:20:52;;;;;;;2.22;1.35;;;17.60;33.90;;;;;;5031747;28;20248;-42
2022/08/07 03:23:20;;;;;;;2.40;1.37;;;17.50;34.30;;;;;;5031884;28;20166;-43
2022/08/07 03:25:46;;;;;;;2.10;1.23;;;17.50;34.00;;;;;;5031914;28;20500;-44
2022/08/07 03:28:16;;;;;;;2.50;1.63;;;17.50;34.00;;;;;;5031879;28;20177;-42
2022/08/07 03:30:43;;;;;;;2.05;1.15;;;17.40;34.00;;;;;;5031678;28;20213;-43
2022/08/07 03:33:10;;;;;;;2.10;1.60;;;17.40;34.00;;;;;;5033681;28;20173;-44
2022/08/07 03:35:38;;;;;;;2.60;1.65;;;17.40;33.90;;;;;;5035692;28;20181;-42
2022/08/07 03:38:06;;;;;;;2.90;1.83;;;17.40;33.90;;;;;;5035610;28;20205;-44
2022/08/07 03:40:32;;;;;;;2.00;1.15;;;17.40;34.10;;;;;;5035786;28;20320;-44
2022/08/07 03:42:59;;;;;;;2.95;1.50;;;17.30;33.90;;;;;;5035524;28;20185;-43
2022/08/07 03:45:27;;;;;;;2.67;1.17;;;17.30;34.00;;;;;;5035453;28;20208;-44
2022/08/07 03:47:53;;;;;;;3.55;1.80;;;17.30;34.00;;;;;;5035186;28;20584;-42
2022/08/07 03:50:20;;;;;;;2.88;1.60;;;17.30;34.20;;;;;;5035334;28;20686;-43
2022/08/07 03:52:48;;;;;;;3.75;1.85;;;17.20;34.80;;;;;;5035659;28;20225;-44
2022/08/07 03:55:15;;;;;;;2.30;1.35;;;17.20;34.50;;;;;;5035374;28;20181;-44
2022/08/07 03:57:42;;;;;;;3.20;1.75;;;17.20;34.50;;;;;;5035105;28;20205;-44
2022/08/07 04:00:10;;;;;;;2.60;1.50;;;17.20;34.70;;;;;;5035301;28;20181;-42
2022/08/07 04:02:36;;;;;;;2.28;1.50;;;17.20;34.50;;;;;;5035022;28;20202;-43
2022/08/07 04:05:04;;;;;;;2.70;1.23;;;17.30;34.50;;;;;;5035393;28;20272;-44
2022/08/07 04:07:30;;;;;;;2.08;1.35;;;17.20;34.70;;;;;;5034848;28;20924;-44
2022/08/07 04:09:57;;;;;;;2.30;1.42;;;17.20;34.70;;;;;;5035087;28;20170;-44
2022/08/07 04:12:24;;;;;;;2.10;1.25;;;17.20;34.70;;;;;;5034970;28;20209;-43
2022/08/07 04:14:50;;;;;;;2.10;1.40;;;17.10;34.80;;;;;;5035144;28;20177;-43
2022/08/07 04:17:17;;;;;;;2.70;1.15;;;17.10;34.90;;;;;;5034705;28;20174;-43
2022/08/07 04:19:43;;;;;;;3.70;1.38;;;17.20;35.20;;;;;;5034852;28;20638;-43
2022/08/07 04:22:11;;;;;;;1.97;1.43;;;17.20;35.40;;;;;;5034831;28;20333;-44
2022/08/07 04:24:38;;;;;;;2.40;1.25;;;17.20;35.20;;;;;;5034972;28;20181;-42
2022/08/07 04:27:04;;;;;;;2.40;1.13;;;17.20;35.10;;;;;;5034530;28;20189;-44
2022/08/07 04:29:30;;;;;;;2.33;1.43;;;17.20;35.20;;;;;;5034616;28;20166;-43
2022/08/07 04:31:56;;;;;;;2.47;1.43;;;17.20;35.20;;;;;;5017256;28;20554;-43
2022/08/07 04:34:23;;;;;;;2.05;1.15;;;17.30;35.20;;;;;;5034891;28;20429;-43
2022/08/07 04:36:49;;;;;;;1.90;1.13;;;17.40;35.30;;;;;;5034371;28;20174;-44
2022/08/07 04:39:15;;;;;;;2.55;1.63;;;17.40;35.20;;;;;;5034576;28;20221;-43
2022/08/07 04:41:41;;;;;;;2.63;1.20;;;17.50;35.40;;;;;;5034431;28;20255;-43
2022/08/07 04:44:08;;;;;;;2.50;1.20;;;17.50;35.30;;;;;;5034424;28;20174;-44
2022/08/07 04:47:01;;;;;;;2.00;1.40;;;17.60;35.30;;;;;;5034151;28;20662;-42
2022/08/07 04:49:42;;;;;;;2.05;1.15;;;17.70;35.30;;;;;;5034347;28;20538;-43
2022/08/07 04:52:20;;;;;;;2.10;1.50;;;17.70;35.40;;;;;;5034592;28;20550;-43
2022/08/07 04:54:58;;;;;;;2.72;1.27;;;17.80;35.30;;;;;;5034405;28;20188;-44
2022/08/07 04:57:48;;;;;;;2.00;1.10;;;17.90;35.50;;;;;;5034104;28;20220;-42
2022/08/07 05:00:45;;;;;;;2.80;1.38;;;18.00;35.30;;;;;;5034478;28;20189;-43
2022/08/07 05:03:28;;;;;;;2.13;1.33;;;18.00;35.40;;;;;;5003320;28;20200;-43
2022/08/07 05:05:59;;;;;;;2.92;1.35;;;18.10;35.40;;;;;;5033906;28;20170;-44
2022/08/07 05:08:45;;;;;;;4.70;2.00;;;18.20;35.30;;;;;;5034123;28;20584;-42
2022/08/07 05:11:18;;;;;;;2.10;1.40;;;18.30;35.30;;;;;;5033950;28;20216;-42
2022/08/07 05:14:10;;;;;;;2.92;1.52;;;18.40;35.00;;;;;;5033913;28;20588;-45
2022/08/07 05:16:39;;;;;;;2.22;1.30;;;18.50;35.10;;;;;;5033732;28;20224;-44
2022/08/07 05:19:12;;;;;;;2.00;1.00;;;18.50;34.90;;;;;;5033887;28;20228;-44
2022/08/07 05:21:46;;;;;;;3.08;1.55;;;18.60;35.00;;;;;;5033948;28;20256;-45
2022/08/07 05:24:18;;;;;;;2.10;1.17;;;18.70;35.00;;;;;;5033946;28;20185;-43
2022/08/07 05:26:47;;;;;;;2.88;1.73;;;18.80;35.00;;;;;;5033424;28;20154;-43
2022/08/07 05:29:15;;;;;;;4.63;1.38;;;18.90;35.00;;;;;;5033652;28;20186;-44
2022/08/07 05:31:43;;;;;;;3.65;1.10;;;19.00;34.70;;;;;;5033532;28;20237;-43
2022/08/07 05:34:12;;;;;;;2.20;1.30;;;19.10;34.80;;;;;;5033468;28;20265;-43
2022/08/07 05:36:41;;;;;;;2.65;1.70;;;19.20;34.60;;;;;;5033261;28;20200;-43
2022/08/07 05:39:09;;;;;;;2.10;1.10;;;19.30;34.50;;;;;;5033627;28;20214;-43
2022/08/07 05:41:36;;;;;;;2.10;1.20;;;19.30;34.70;;;;;;5033575;28;20276;-44
2022/08/07 05:44:02;;;;;;;4.97;1.55;;;19.50;34.50;;;;;;5033356;28;20177;-44
2022/08/07 05:46:29;;;;;;;5.10;1.60;;;19.50;34.30;;;;;;5033224;28;20205;-43
2022/08/07 05:48:55;;;;;;;1.95;1.08;;;19.50;34.20;;;;;;5033655;28;20697;-41
2022/08/07 05:51:23;;;;;;;2.63;1.50;;;19.50;34.20;;;;;;5033548;28;20543;-42
2022/08/07 05:53:49;;;;;;;2.00;1.20;;;19.70;34.40;;;;;;5033788;28;20181;-43
2022/08/07 05:56:17;;;;;;;2.20;1.20;;;19.70;34.20;;;;;;5032944;28;20174;-42
2022/08/07 05:58:45;;;;;;;2.60;1.70;;;19.80;34.40;;;;;;5033562;28;20221;-44
2022/08/07 06:01:14;;;;;;;2.10;0.90;;;20.00;34.30;;;;;;5033272;28;20735;-43
2022/08/07 06:03:46;;;;;;;2.70;1.58;;;20.10;34.30;;;;;;5033210;28;20193;-43
2022/08/07 06:06:12;;;;;;;3.20;1.85;;;20.20;34.00;;;;;;5033054;28;20158;-44
2022/08/07 06:08:42;;;;;;;2.47;1.30;;;20.20;33.70;;;;;;5032940;28;20205;-43
2022/08/07 06:11:10;;;;;;;2.70;1.40;;;20.30;33.80;;;;;;5033080;28;20292;-43
2022/08/07 06:13:36;;;;;;;2.20;1.40;;;20.40;33.80;;;;;;5032618;28;20257;-42
2022/08/07 06:16:05;;;;;;;2.13;1.42;;;20.50;33.80;;;;;;5032769;28;20178;-43
2022/08/07 06:18:32;;;;;;;2.60;1.48;;;20.60;33.50;;;;;;5032786;28;20569;-43
2022/08/07 06:21:02;;;;;;;2.50;1.40;;;20.70;33.80;;;;;;5032819;28;20194;-43
2022/08/07 06:23:29;;;;;;;2.85;1.88;;;20.80;33.60;;;;;;5032849;28;20170;-43
2022/08/07 06:25:55;;;;;;;2.72;1.67;;;20.90;33.60;;;;;;5032271;28;20182;-42
2022/08/07 06:28:21;;;;;;;4.63;2.03;;;21.00;33.30;;;;;;5032748;28;20186;-43
2022/08/07 06:30:47;;;;;;;3.30;1.27;;;21.00;33.10;;;;;;5032561;28;20907;-42
2022/08/07 06:33:13;;;;;;;3.27;2.27;;;21.10;33.20;;;;;;5032579;28;20492;-43
2022/08/07 06:35:39;;;;;;;2.00;1.33;;;21.10;32.70;;;;;;5032256;28;20252;-42
2022/08/07 06:38:05;;;;;;;2.83;1.43;;;21.10;32.60;;;;;;5032547;28;20619;-42
2022/08/07 06:40:39;;;;;;;3.47;1.60;;;21.10;32.50;;;;;;5032254;28;20554;-42
2022/08/07 06:43:07;;;;;;;3.20;1.83;;;21.20;33.10;;;;;;5032601;28;20547;-43
2022/08/07 06:45:33;;;;;;;2.40;1.45;;;21.30;33.20;;;;;;5031991;28;20296;-45
2022/08/07 06:48:00;;;;;;;2.47;1.50;;;21.40;33.20;;;;;;5032194;28;20208;-43
2022/08/07 06:50:27;;;;;;;2.45;1.45;;;21.50;32.50;;;;;;5032358;28;20908;-44
2022/08/07 06:52:55;;;;;;;3.00;1.43;;;21.50;32.20;;;;;;5032299;28;20236;-43
2022/08/07 06:55:28;;;;;;;2.65;1.38;;;21.60;31.70;;;;;;5031937;28;20408;-42
2022/08/07 06:57:58;;;;;;;2.13;1.30;;;21.60;31.30;;;;;;5031931;28;20675;-43
2022/08/07 07:00:26;;;;;;;2.22;1.77;;;21.60;31.30;;;;;;5032086;28;20174;-43
2022/08/07 07:02:53;;;;;;;4.20;2.08;;;21.60;31.60;;;;;;5032005;28;20650;-43
2022/08/07 07:05:22;;;;;;;2.70;1.70;;;21.80;32.20;;;;;;5031935;28;20269;-42
2022/08/07 07:07:48;;;;;;;2.92;1.65;;;22.00;32.60;;;;;;5030823;28;20178;-42
2022/08/07 07:10:14;;;;;;;2.60;1.57;;;22.20;32.80;;;;;;5032161;28;20265;-43
2022/08/07 07:12:52;;;;;;;2.47;1.63;;;22.30;31.80;;;;;;5032032;28;20673;-43
2022/08/07 07:15:26;;;;;;;2.38;1.30;;;22.40;31.10;;;;;;5031978;28;20401;-43
2022/08/07 07:18:04;;;;;;;2.38;1.73;;;22.50;31.00;;;;;;5031667;28;20205;-43
2022/08/07 07:20:36;;;;;;;3.88;1.90;;;22.60;30.60;;;;;;5031980;28;20178;-43
2022/08/07 07:23:04;;;;;;;4.67;1.20;;;22.60;29.90;;;;;;5031975;28;20178;-43
2022/08/07 07:25:30;;;;;;;2.40;1.58;;;22.70;30.10;;;;;;5031907;28;20412;-44
2022/08/07 07:27:56;;;;;;;4.43;1.70;;;22.80;29.80;;;;;;5031706;28;20672;-44
2022/08/07 07:30:26;;;;;;;2.57;1.50;;;22.90;29.60;;;;;;5031548;28;20189;-43
2022/08/07 07:32:56;;;;;;;2.93;1.47;;;23.00;30.10;;;;;;5031769;28;20174;-42
2022/08/07 07:35:23;;;;;;;2.20;1.30;;;23.00;28.50;;;;;;5014294;28;20412;-43
2022/08/07 07:37:51;;;;;;;2.50;1.43;;;23.10;28.80;;;;;;5031457;28;20460;-44
2022/08/07 07:40:19;;;;;;;2.43;1.20;;;23.10;28.30;;;;;;5031662;28;20400;-42
2022/08/07 07:42:52;;;;;;;3.90;1.60;;;23.20;29.00;;;;;;5031936;28;20459;-43
2022/08/07 07:45:23;;;;;;;2.90;1.20;;;23.30;28.90;;;;;;5031833;28;20397;-42
2022/08/07 07:47:52;;;;;;;2.93;1.53;;;23.40;28.70;;;;;;5031535;28;20194;-44
2022/08/07 07:50:21;;;;;;;2.23;1.13;;;23.50;28.90;;;;;;5031593;28;20435;-43
2022/08/07 07:52:48;;;;;;;2.43;1.40;;;23.60;28.80;;;;;;5031704;28;20458;-43
2022/08/07 07:55:17;;;;;;;2.00;1.17;;;23.70;28.00;;;;;;5031405;28;20416;-43
2022/08/07 07:57:45;;;;;;;4.20;1.80;;;23.90;28.00;;;;;;5031477;28;20488;-44
2022/08/07 08:00:13;;;;;;;2.00;1.17;;;23.90;27.90;;;;;;5031751;28;20400;-43
2022/08/07 08:02:42;;;;;;;2.77;1.63;;;24.10;28.70;;;;;;5031430;28;20429;-43
2022/08/07 08:05:09;;;;;;;2.50;1.70;;;24.30;29.00;;;;;;5031551;28;20405;-44
2022/08/07 08:07:37;;;;;;;3.30;1.30;;;24.30;28.30;;;;;;5031555;28;20413;-42
2022/08/07 08:10:05;;;;;;;5.37;1.73;;;24.40;27.30;;;;;;5031477;28;20413;-43
2022/08/07 08:12:32;;;;;;;2.73;1.63;;;24.40;27.60;;;;;;5031442;28;20460;-43
2022/08/07 08:14:59;;;;;;;2.67;1.53;;;24.50;27.80;;;;;;5031305;28;20409;-43
2022/08/07 08:17:27;;;;;;;2.40;1.50;;;24.60;26.80;;;;;;5031322;28;20409;-44
2022/08/07 08:19:57;;;;;;;2.10;1.23;;;24.80;26.80;;;;;;5034088;28;20400;-44
2022/08/07 08:28:17;;;;;;;2.70;1.10;;;25.30;27.00;;;;;;4973657;28;20510;-43
2022/08/07 08:30:44;;;;;;;2.00;1.03;;;25.50;27.20;;;;;;5024179;28;20464;-43
2022/08/07 08:33:15;;;;;;;1.93;1.00;;;25.60;24.90;;;;;;5034534;28;20426;-43
2022/08/07 08:35:44;;;;;;;2.07;0.90;;;25.60;23.50;;;;;;5034617;28;20491;-43
2022/08/07 08:38:13;;;;;;;2.43;1.00;;;25.60;24.10;;;;;;5034377;28;20483;-42
2022/08/07 08:40:45;;;;;;;1.97;1.07;;;25.70;23.70;;;;;;5034448;28;20464;-43
2022/08/07 08:43:19;;;;;;;2.10;0.97;;;25.60;25.30;;;;;;5034500;28;20389;-43
2022/08/07 08:45:54;;;;;;;3.60;1.30;;;25.70;25.30;;;;;;5034122;28;20939;-43
2022/08/07 08:48:34;;;;;;;2.00;0.93;;;25.60;25.30;;;;;;5034450;28;20417;-43
2022/08/07 08:51:04;;;;;;;2.30;1.20;;;25.80;25.70;;;;;;5034235;28;20939;-43
2022/08/07 08:53:55;;;;;;;5.33;1.00;;;25.80;24.40;;;;;;5034517;28;20499;-43
2022/08/07 08:56:34;;;;;;;2.03;1.00;;;25.90;23.40;;;;;;5032887;28;20455;-43
2022/08/07 08:59:25;;;;;;;2.73;1.17;;;25.80;23.00;;;;;;5034252;28;20828;-43
2022/08/07 09:02:24;;;;;;;3.97;1.13;;;25.80;24.10;;;;;;5034065;28;20421;-42
2022/08/07 09:05:10;;;;;;;1.80;0.87;;;25.70;24.70;;;;;;5034055;28;20420;-44
2022/08/07 09:07:59;;;;;;;2.30;1.27;;;25.60;23.00;;;;;;5033702;28;20427;-42
2022/08/07 09:10:43;;;;;;;2.43;1.43;;;25.50;24.00;;;;;;5033923;28;20504;-43
2022/08/07 09:13:41;;;;;;;2.40;1.20;;;25.50;24.10;;;;;;5033930;28;20908;-43
2022/08/07 09:16:25;;;;;;;4.67;0.90;;;25.60;24.30;;;;;;5033806;28;20779;-43
2022/08/07 09:18:54;;;;;;;2.93;1.07;;;25.90;24.70;;;;;;5033919;28;20476;-43
2022/08/07 09:21:46;;;;;;;1.90;0.90;;;26.10;23.70;;;;;;5033897;28;20433;-44
2022/08/07 09:24:52;;;;;;;2.03;1.13;;;26.20;23.50;;;;;;5033996;28;20452;-42
2022/08/07 09:27:42;;;;;;;1.90;0.93;;;26.20;24.00;;;;;;5033570;28;20397;-44
2022/08/07 09:30:09;;;;;;;1.60;0.80;;;26.30;24.50;;;;;;5032629;28;20405;-42
2022/08/07 09:33:03;;;;;;;1.60;0.60;;;26.20;24.90;;;;;;5033505;28;20444;-44
2022/08/07 09:35:56;;;;;;;2.23;1.10;;;26.30;24.40;;;;;;5033404;28;20508;-43
2022/08/07 09:38:54;;;;;;;2.00;0.73;;;26.40;24.40;;;;;;5033550;28;20461;-43
2022/08/07 09:41:52;;;;;;;6.00;0.97;;;26.40;24.40;;;;;;5033318;28;20446;-42
2022/08/07 09:44:38;;;;;;;3.20;0.90;;;26.60;24.10;;;;;;5033179;28;20889;-43
2022/08/07 09:47:54;;;;;;;2.07;0.83;;;26.70;23.50;;;;;;5033104;28;20450;-43
2022/08/07 09:50:45;;;;;;;2.03;0.90;;;26.80;23.90;;;;;;4962855;28;20428;-44
2022/08/07 09:53:13;;;;;;;1.93;0.90;;;26.80;23.70;;;;;;5024228;28;20423;-42
2022/08/07 09:56:12;;;;;;;2.30;0.90;;;26.90;23.70;;;;;;5032974;28;20769;-43
2022/08/07 09:59:06;;;;;;;2.20;1.10;;;26.90;23.20;;;;;;5032949;28;20452;-44
2022/08/07 10:01:51;;;;;;;1.90;0.83;;;26.80;22.00;;;;;;5032946;28;20551;-43
2022/08/07 10:05:01;;;;;;;1.70;0.70;;;26.70;21.80;;;;;;5033248;28;20401;-43
2022/08/07 10:08:20;;;;;;;1.90;1.10;;;26.60;22.50;;;;;;5032677;28;20424;-42
2022/08/07 10:10:58;;;;;;;1.90;0.80;;;26.60;22.90;;;;;;4952358;29;20483;-43
2022/08/07 10:14:01;;;;;;;1.87;0.80;;;26.70;23.40;;;;;;4952513;29;20817;-42
2022/08/07 10:17:01;;;;;;;1.70;0.70;;;26.80;22.80;;;;;;4952163;29;20415;-43
2022/08/07 10:19:51;;;;;;;3.20;0.67;;;27.20;23.10;;;;;;4952230;29;20455;-43
2022/08/07 10:23:07;;;;;;;2.20;0.90;;;27.40;21.10;;;;;;4952176;29;20980;-43
2022/08/07 10:25:49;;;;;;;3.20;1.07;;;27.60;21.50;;;;;;4913918;29;20398;-42
2022/08/07 10:28:33;;;;;;;2.00;0.97;;;27.80;21.50;;;;;;4952132;29;20428;-43
2022/08/07 10:31:16;;;;;;;3.00;1.00;;;28.00;20.90;;;;;;4952058;29;20459;-44
2022/08/07 10:33:47;;;;;;;1.90;0.73;;;28.20;21.70;;;;;;4952013;29;20416;-43
2022/08/07 10:36:52;;;;;;;4.33;1.30;;;28.30;22.00;;;;;;4951705;29;20405;-42
2022/08/07 10:39:26;;;;;;;2.67;1.27;;;28.30;20.70;;;;;;4951986;29;20452;-43
2022/08/07 10:42:18;;;;;;;1.80;0.70;;;28.40;20.60;;;;;;5010678;28;20434;-42
2022/08/07 10:44:57;;;;;;;3.00;0.77;;;28.50;20.60;;;;;;5028626;28;20424;-42
2022/08/07 10:47:53;;;;;;;2.00;0.90;;;28.50;21.10;;;;;;5032192;28;20404;-43
2022/08/07 10:50:41;;;;;;;1.80;0.80;;;28.70;20.70;;;;;;5032059;28;20385;-42
2022/08/07 10:53:31;;;;;;;2.20;0.90;;;28.90;20.00;;;;;;5032257;28;20393;-43
2022/08/07 10:56:33;;;;;;;1.70;0.90;;;29.00;19.50;;;;;;5031908;28;20407;-42
2022/08/07 10:59:34;;;;;;;3.40;1.10;;;28.90;19.30;;;;;;4951602;29;20475;-44
2022/08/07 11:02:27;;;;;;;1.90;0.80;;;28.90;19.60;;;;;;4951733;29;20431;-43
2022/08/07 11:05:30;;;;;;;1.70;0.70;;;28.90;19.50;;;;;;4951743;29;20552;-42
2022/08/07 11:08:28;;;;;;;2.13;0.70;;;29.00;19.80;;;;;;4951541;29;20419;-44
2022/08/07 11:11:16;;;;;;;1.70;0.70;;;29.00;19.90;;;;;;4951562;29;20422;-42
2022/08/07 11:14:10;;;;;;;1.93;0.90;;;29.20;19.90;;;;;;4937991;29;20420;-43
2022/08/07 11:16:42;;;;;;;2.00;0.87;;;29.40;19.40;;;;;;4951410;29;20396;-43
2022/08/07 11:19:19;;;;;;;1.93;1.00;;;29.50;19.70;;;;;;4951389;29;20814;-43
2022/08/07 11:22:05;;;;;;;1.97;1.00;;;29.70;18.90;;;;;;4951598;29;20522;-43
2022/08/07 11:25:05;;;;;;;2.10;0.80;;;29.80;19.20;;;;;;4951569;29;20409;-43
2022/08/07 11:28:01;;;;;;;1.70;0.57;;;29.90;19.30;;;;;;4951109;29;20455;-43
2022/08/07 11:30:33;;;;;;;2.07;0.80;;;30.10;19.30;;;;;;4951159;29;20455;-44
2022/08/07 11:33:30;;;;;;;2.10;0.60;;;30.20;19.00;;;;;;4991595;28;20424;-41
2022/08/07 11:36:15;;;;;;;5.37;0.90;;;30.20;18.60;;;;;;5031484;28;20959;-42
2022/08/07 11:39:00;;;;;;;1.90;0.67;;;30.10;18.80;;;;;;5031551;28;20940;-42
2022/08/07 11:41:31;;;;;;;1.60;0.50;;;30.10;18.90;;;;;;5031862;28;20429;-44
2022/08/07 11:44:18;;;;;;;1.60;0.80;;;30.20;19.10;;;;;;5031829;28;20409;-44
2022/08/07 11:46:58;;;;;;;1.70;0.73;;;30.30;18.50;;;;;;5031462;28;20397;-43
2022/08/07 11:49:36;;;;;;;2.03;0.80;;;30.20;17.70;;;;;;5031799;28;20489;-44
2022/08/07 11:52:17;;;;;;;2.77;0.80;;;30.20;18.10;;;;;;5031902;28;20520;-42
2022/08/07 11:55:10;;;;;;;1.80;0.93;;;30.20;18.40;;;;;;5034317;28;20393;-43
2022/08/07 11:58:06;;;;;;;1.70;0.60;;;30.20;18.50;;;;;;5035388;28;20424;-42
2022/08/07 12:01:00;;;;;;;2.60;0.87;;;30.20;18.00;;;;;;5034139;28;21001;-43
2022/08/07 12:03:35;;;;;;;2.03;0.93;;;30.40;16.60;;;;;;5000697;28;20792;-42
2022/08/07 12:06:22;;;;;;;1.90;0.80;;;30.30;16.00;;;;;;5035468;28;20470;-42
2022/08/07 12:09:04;;;;;;;1.93;0.80;;;30.40;17.40;;;;;;5035144;28;20401;-42
2022/08/07 12:11:51;;;;;;;3.00;0.83;;;30.40;17.80;;;;;;5035044;28;21131;-42
2022/08/07 12:14:20;;;;;;;1.90;0.60;;;30.60;17.70;;;;;;5035326;28;20412;-42
2022/08/07 12:17:01;;;;;;;2.60;1.10;;;30.70;17.80;;;;;;5034943;28;20432;-44
2022/08/07 12:19:43;;;;;;;4.03;0.90;;;30.90;17.20;;;;;;5034799;28;20467;-43
2022/08/07 12:22:40;;;;;;;2.33;0.70;;;31.00;16.90;;;;;;5017276;28;20546;-44
2022/08/07 12:28:21;;;;;;;2.87;0.73;;;31.00;17.20;;;;;;5034851;28;20431;-43
2022/08/07 12:30:52;;;;;;;2.13;0.83;;;31.20;17.40;;;;;;5034652;28;20444;-44
2022/08/07 12:33:23;;;;;;;2.57;0.90;;;31.20;16.10;;;;;;5034918;28;20428;-43
2022/08/07 12:35:51;;;;;;;1.60;0.60;;;31.30;15.70;;;;;;5034603;28;20423;-43
2022/08/07 12:38:18;;;;;;;2.60;0.73;;;31.20;15.70;;;;;;5034620;28;20537;-43
2022/08/07 12:40:47;;;;;;;1.70;0.63;;;31.20;15.50;;;;;;5034411;28;21095;-44
2022/08/07 12:43:15;;;;;;;2.00;0.63;;;31.10;16.40;;;;;;5034580;28;20405;-44
2022/08/07 12:46:23;;;;;;;2.00;0.67;;;31.20;17.10;;;;;;5034213;28;20990;-44
2022/08/07 12:49:01;;;;;;;1.70;0.70;;;31.30;16.60;;;;;;5024437;28;20455;-44
2022/08/07 12:51:38;;;;;;;4.57;0.70;;;31.40;16.30;;;;;;5034582;28;20459;-43
2022/08/07 12:54:50;;;;;;;3.50;0.97;;;31.50;16.20;;;;;;5034242;28;20413;-43
2022/08/07 12:57:20;;;;;;;1.93;0.70;;;31.50;16.40;;;;;;5004598;28;20859;-43
2022/08/07 12:59:48;;;;;;;2.50;0.70;;;31.60;16.90;;;;;;5034433;28;20460;-42
2022/08/07 13:02:47;;;;;;;1.70;0.60;;;31.60;16.30;;;;;;5034268;28;20424;-44
2022/08/07 13:05:48;;;;;;;1.80;0.70;;;31.70;16.10;;;;;;5016143;28;20413;-43
2022/08/07 13:08:20;;;;;;;1.77;0.67;;;31.70;15.20;;;;;;5029944;28;20522;-44
2022/08/07 13:11:00;;;;;;;4.37;0.90;;;31.60;15.50;;;;;;5034060;28;20439;-44
2022/08/07 13:13:43;;;;;;;1.80;0.63;;;31.70;15.20;;;;;;5033916;28;20749;-44
2022/08/07 13:16:48;;;;;;;1.80;0.73;;;31.70;15.30;;;;;;5034079;28;20427;-44
2022/08/07 13:19:17;;;;;;;1.70;0.60;;;31.70;15.30;;;;;;5033750;28;20456;-44
2022/08/07 13:21:47;;;;;;;1.93;0.60;;;31.60;16.10;;;;;;5033670;28;20433;-43
2022/08/07 13:24:29;;;;;;;1.53;0.50;;;31.70;16.40;;;;;;5033771;28;20408;-44
2022/08/07 13:27:09;;;;;;;1.57;0.50;;;31.80;16.40;;;;;;5033415;28;20404;-44
2022/08/07 13:29:59;;;;;;;2.00;0.60;;;32.00;16.60;;;;;;5033827;28;20448;-44
2022/08/07 13:32:28;;;;;;;1.73;0.90;;;32.10;16.70;;;;;;5033392;28;20448;-44
2022/08/07 13:35:08;;;;;;;1.73;0.60;;;32.30;16.20;;;;;;5033774;28;20430;-45